createdAt,value
2018-09-12T00:00:33.003Z,60.40
2018-09-12T00:05:36.719Z,61.20
2018-09-12T00:10:40.319Z,61.30
2018-09-12T00:15:44.275Z,61.20
2018-09-12T00:20:47.954Z,61.40
2018-09-12T00:25:51.669Z,61.50
2018-09-12T00:30:55.322Z,61.60
2018-09-12T00:35:59.094Z,61.50
2018-09-12T00:41:02.772Z,62.00
2018-09-12T00:46:06.487Z,62.50
2018-09-12T00:51:10.244Z,62.60
2018-09-12T00:56:13.844Z,62.30
2018-09-12T01:01:17.416Z,62.40
2018-09-12T01:06:21.164Z,62.80
2018-09-12T01:11:25.746Z,62.10
2018-09-12T01:16:29.479Z,62.50
2018-09-12T01:21:34.232Z,62.60
2018-09-12T01:26:38.129Z,62.90
2018-09-12T01:31:41.703Z,62.50
2018-09-12T01:36:45.326Z,63.10
2018-09-12T01:41:48.928Z,63.00
2018-09-12T01:46:57.271Z,62.80
2018-09-12T01:52:00.929Z,62.80
2018-09-12T01:57:05.192Z,63.60
2018-09-12T02:02:09.083Z,63.60
2018-09-12T02:07:12.729Z,63.30
2018-09-12T02:12:16.675Z,62.90
2018-09-12T02:17:20.332Z,63.80
2018-09-12T02:22:23.963Z,64.00
2018-09-12T02:27:28.275Z,63.40
2018-09-12T02:32:32.920Z,63.60
2018-09-12T02:37:38.168Z,63.50
2018-09-12T02:42:41.999Z,64.10
2018-09-12T02:47:46.323Z,63.80
2018-09-12T02:52:49.930Z,63.90
2018-09-12T02:57:53.823Z,64.30
2018-09-12T03:02:57.453Z,64.70
2018-09-12T03:08:01.462Z,64.30
2018-09-12T03:13:05.049Z,64.00
2018-09-12T03:18:08.670Z,63.70
2018-09-12T03:23:13.220Z,64.30
2018-09-12T03:34:07.307Z,64.80
2018-09-12T03:39:12.171Z,65.10
2018-09-12T03:44:15.817Z,64.70
2018-09-12T03:49:19.423Z,64.90
2018-09-12T03:54:23.478Z,64.90
2018-09-12T03:59:28.254Z,65.00
2018-09-12T04:04:57.335Z,64.70
2018-09-12T04:15:43.878Z,64.80
2018-09-12T04:20:47.914Z,65.10
2018-09-12T04:25:51.597Z,65.00
2018-09-12T04:30:55.197Z,65.90
2018-09-12T04:35:59.970Z,66.00
2018-09-12T04:41:03.567Z,65.90
2018-09-12T04:46:07.473Z,66.20
2018-09-12T04:51:11.748Z,66.40
2018-09-12T04:56:18.960Z,65.70
2018-09-12T05:01:23.529Z,66.30
2018-09-12T05:06:29.245Z,65.90
2018-09-12T05:11:33.052Z,65.70
2018-09-12T05:16:36.799Z,65.60
2018-09-12T05:21:40.456Z,65.90
2018-09-12T05:26:44.100Z,64.60
2018-09-12T05:31:47.943Z,65.30
2018-09-12T05:36:51.528Z,64.20
2018-09-12T05:41:55.665Z,64.50
2018-09-12T05:46:59.289Z,65.50
2018-09-12T05:52:02.887Z,65.80
2018-09-12T05:57:06.505Z,66.50
2018-09-12T06:02:11.143Z,65.50
2018-09-12T06:07:14.924Z,64.90
2018-09-12T06:12:18.833Z,65.10
2018-09-12T06:17:24.969Z,65.60
2018-09-12T06:22:31.608Z,65.90
2018-09-12T06:27:35.208Z,65.90
2018-09-12T06:32:38.817Z,65.60
2018-09-12T06:37:42.509Z,65.60
2018-09-12T06:42:46.817Z,65.90
2018-09-12T06:47:50.407Z,65.20
2018-09-12T06:52:53.990Z,64.50
2018-09-12T06:57:58.180Z,63.90
2018-09-12T07:03:02.036Z,63.10
2018-09-12T07:08:06.119Z,63.10
2018-09-12T07:13:10.608Z,62.60
2018-09-12T07:18:14.212Z,61.90
2018-09-12T07:23:17.803Z,62.70
2018-09-12T07:28:22.048Z,61.80
2018-09-12T07:33:26.327Z,61.70
2018-09-12T07:38:29.953Z,60.10
2018-09-12T07:43:33.565Z,59.60
2018-09-12T07:48:38.461Z,59.50
2018-09-12T07:53:42.088Z,59.40
2018-09-12T07:58:45.747Z,58.80
2018-09-12T08:03:49.563Z,59.10
2018-09-12T08:08:53.569Z,56.80
2018-09-12T08:13:57.197Z,56.80
2018-09-12T08:19:00.847Z,56.00
2018-09-12T08:24:06.920Z,54.40
2018-09-12T08:29:10.654Z,53.10
2018-09-12T08:34:14.609Z,49.00
2018-09-12T08:39:18.284Z,40.70
2018-09-12T08:44:21.968Z,34.30
2018-09-12T08:49:26.106Z,30.60
2018-09-12T08:54:29.729Z,28.80
2018-09-12T08:59:34.294Z,28.60
2018-09-12T09:04:37.952Z,28.30
2018-09-12T09:09:41.752Z,29.40
2018-09-12T09:14:45.336Z,33.50
2018-09-12T09:19:49.276Z,35.50
2018-09-12T09:24:52.892Z,37.90
2018-09-12T09:29:56.536Z,40.10
2018-09-12T09:35:01.160Z,41.60
2018-09-12T09:40:07.000Z,43.40
2018-09-12T09:45:10.969Z,44.90
2018-09-12T09:50:15.723Z,45.50
2018-09-12T09:55:19.400Z,46.10
2018-09-12T10:00:28.207Z,46.50
2018-09-12T10:05:37.329Z,46.50
2018-09-12T10:10:40.934Z,45.60
2018-09-12T10:15:44.610Z,44.90
2018-09-12T10:20:48.180Z,45.00
2018-09-12T10:25:52.329Z,45.10
2018-09-12T10:30:55.981Z,44.40
2018-09-12T10:35:59.694Z,43.90
2018-09-12T10:41:03.447Z,43.10
2018-09-12T10:51:20.561Z,43.70
2018-09-12T10:56:25.244Z,43.20
2018-09-12T11:01:30.825Z,42.70
2018-09-12T11:06:35.040Z,42.30
2018-09-12T11:16:50.200Z,41.30
2018-09-12T11:21:53.833Z,41.30
2018-09-12T11:26:57.502Z,41.80
2018-09-12T11:32:01.193Z,41.30
2018-09-12T11:37:04.987Z,41.70
2018-09-12T11:42:10.201Z,41.90
2018-09-12T11:47:14.736Z,42.50
2018-09-12T11:52:18.380Z,41.80
2018-09-12T12:02:25.530Z,39.70
2018-09-12T12:07:29.188Z,40.00
2018-09-12T12:17:37.264Z,39.30
2018-09-12T12:22:40.915Z,39.00
2018-09-12T12:27:44.704Z,39.60
2018-09-12T12:32:48.360Z,39.30
2018-09-12T12:37:53.299Z,38.80
2018-09-12T12:42:59.569Z,38.80
2018-09-12T12:48:03.274Z,37.50
2018-09-12T12:53:07.516Z,36.90
2018-09-12T12:58:11.277Z,37.30
2018-09-12T13:03:15.087Z,36.20
2018-09-12T13:13:22.497Z,34.30
2018-09-12T13:18:26.119Z,34.80
2018-09-12T13:23:31.786Z,35.20
2018-09-12T13:28:36.081Z,34.30
2018-09-12T13:33:40.353Z,34.50
2018-09-12T13:38:44.498Z,34.60
2018-09-12T13:43:48.651Z,33.70
2018-09-12T13:48:53.877Z,32.90
2018-09-12T13:53:57.508Z,33.30
2018-09-12T13:59:01.332Z,35.00
2018-09-12T14:04:05.315Z,33.50
2018-09-12T14:09:10.912Z,31.50
2018-09-12T14:14:15.415Z,30.70
2018-09-12T14:19:19.069Z,29.30
2018-09-12T14:24:23.376Z,29.20
2018-09-12T14:29:27.761Z,28.80
2018-09-12T14:34:31.721Z,30.70
2018-09-12T14:44:43.337Z,31.20
2018-09-12T14:49:52.114Z,30.10
2018-09-12T14:55:33.424Z,30.70
2018-09-12T15:00:47.019Z,32.20
2018-09-12T15:06:23.043Z,32.30
2018-09-12T15:11:53.896Z,31.00
2018-09-12T15:17:34.233Z,30.60
2018-09-12T15:22:56.493Z,31.80
2018-09-12T15:33:19.616Z,29.60
2018-09-12T15:53:33.425Z,29.70
2018-09-12T15:58:37.519Z,30.90
2018-09-12T16:03:41.672Z,32.20
2018-09-12T16:08:45.676Z,32.50
2018-09-12T16:13:49.893Z,32.50
2018-09-12T16:18:53.928Z,33.00
2018-09-12T16:23:57.698Z,32.30
2018-09-12T16:29:02.984Z,32.20
2018-09-12T16:34:06.912Z,31.60
2018-09-12T16:39:20.648Z,30.10
2018-09-12T16:44:24.647Z,30.90
2018-09-12T16:49:28.481Z,30.70
2018-09-12T16:54:32.967Z,31.30
2018-09-12T16:59:38.278Z,32.70
2018-09-12T17:04:43.133Z,33.20
2018-09-12T17:09:47.293Z,33.10
2018-09-12T17:14:51.184Z,34.00
2018-09-12T17:19:54.843Z,35.00
2018-09-12T17:24:58.679Z,35.30
2018-09-12T17:30:02.412Z,35.90
2018-09-12T17:35:06.184Z,35.90
2018-09-12T17:40:10.504Z,36.50
2018-09-12T17:45:14.808Z,38.20
2018-09-12T17:50:18.478Z,38.70
2018-09-12T17:55:22.416Z,39.50
2018-09-12T18:00:29.819Z,40.30
2018-09-12T18:05:34.174Z,40.70
2018-09-12T18:10:38.162Z,41.50
2018-09-12T18:20:46.476Z,43.60
2018-09-12T18:25:50.511Z,44.30
2018-09-12T18:30:54.570Z,45.00
2018-09-12T18:35:59.631Z,45.30
2018-09-12T18:41:03.397Z,45.50
2018-09-12T18:46:07.075Z,46.10
2018-09-12T18:51:11.231Z,46.70
2018-09-12T19:01:18.860Z,46.70
2018-09-12T19:11:26.071Z,46.90
2018-09-12T19:16:29.931Z,47.10
2018-09-12T19:21:33.603Z,47.40
2018-09-12T19:36:50.367Z,46.80
2018-09-12T19:46:57.688Z,47.10
2018-09-12T19:52:01.410Z,47.10
2018-09-12T20:02:09.158Z,48.20
2018-09-12T20:12:16.351Z,49.90
2018-09-12T20:17:20.742Z,50.70
2018-09-12T20:22:24.429Z,51.00
2018-09-12T20:27:28.108Z,51.50
2018-09-12T20:32:32.124Z,51.70
2018-09-12T20:37:35.829Z,52.00
2018-09-12T20:42:40.040Z,52.10
2018-09-12T21:07:58.490Z,51.60
2018-09-12T21:13:03.143Z,51.40
2018-09-12T21:18:07.553Z,51.30
2018-09-12T21:28:15.655Z,54.50
2018-09-12T21:33:25.376Z,54.00
2018-09-12T21:38:29.547Z,54.80
2018-09-12T21:43:34.180Z,54.40
2018-09-12T21:48:40.497Z,54.20
2018-09-12T21:53:44.156Z,54.10
2018-09-12T21:58:48.182Z,54.50
2018-09-12T22:03:52.531Z,55.40
2018-09-12T22:09:00.672Z,55.40
2018-09-12T22:14:05.119Z,55.30
2018-09-12T22:19:09.092Z,55.70
2018-09-12T22:24:12.934Z,55.70
2018-09-12T22:29:16.713Z,56.20
2018-09-12T22:34:20.414Z,56.20
2018-09-12T22:39:24.063Z,55.90
2018-09-12T22:44:29.588Z,56.40
2018-09-12T22:49:33.274Z,56.30
2018-09-12T22:59:40.704Z,56.10
2018-09-12T23:04:44.733Z,56.80
2018-09-12T23:09:48.484Z,56.60
2018-09-12T23:14:52.411Z,56.90
2018-09-12T23:19:56.054Z,57.20
2018-09-12T23:24:59.651Z,57.50
2018-09-12T23:30:03.291Z,56.30
2018-09-12T23:35:07.048Z,52.70
2018-09-12T23:40:11.311Z,53.50
2018-09-12T23:45:15.475Z,57.60
2018-09-12T23:50:19.080Z,57.00
2018-09-12T23:55:22.720Z,56.10
